Taldom, Russia
Current Conditions -  °F | °C
As of 12:00 PM on Monday 22 Dec 2014 (Local Time) from UUEE Reporting Station
Light Snow Light Snow  
Wind Chill: 19°   Ceiling: 1600
Heat Index: 30°   Visibility: 6mi
Dew Point: 25°   Wind: 16mph
Humidity: 80%   Direction: 240°WSW
Pressure: 29.47"   Gusts: NA
Location:  56.73°N, 37.53°E
Report Text: UUEE 220900Z 24007MPS 9999 -SN OVC016 M01/M04 Q0998 7551014525510145 NOSIG
Loading
Personal Weather Stations






























Interactive Weather Map New forecast layout! Learn more

10-Day Weather Forecast

Advertisements
Track Severe Weather on mobile